Time;durP1;ratioP1;P1;durP2;ratioP2;P2;SDS_P1;SDS_P2;PMS_P1;PMS_P2;Temp;Humidity;BMP_temperature;BMP_pressure;BME280_temperature;BME280_humidity;BME280_pressure;Samples;Min_cycle;Max_cycle;Signal;HPM_P1;HPM_P2
2022/06/29 00:02:20;;;;;;;7.50;2.53;;;20.00;99.90;;;;;;5053295;28;20489;-75
2022/06/29 00:04:46;;;;;;;11.20;2.65;;;20.00;99.90;;;;;;5053129;28;20039;-75
2022/06/29 00:07:12;;;;;;;5.05;2.15;;;19.90;99.90;;;;;;5059613;28;20116;-75
2022/06/29 00:09:37;;;;;;;6.38;2.20;;;19.90;99.90;;;;;;5069541;28;20028;-75
2022/06/29 00:12:03;;;;;;;9.18;2.00;;;19.80;99.90;;;;;;5072958;28;20020;-76
2022/06/29 00:14:29;;;;;;;4.05;2.17;;;19.80;99.90;;;;;;5073298;28;20115;-75
2022/06/29 00:16:55;;;;;;;12.32;2.72;;;19.90;99.90;;;;;;5073649;28;20158;-75
2022/06/29 00:19:21;;;;;;;7.13;2.30;;;19.80;99.90;;;;;;5072909;28;20056;-75
2022/06/29 00:21:46;;;;;;;3.50;2.25;;;19.80;99.90;;;;;;5073159;28;20024;-76
2022/06/29 00:24:12;;;;;;;6.97;2.30;;;19.80;99.90;;;;;;5071894;28;20032;-76
2022/06/29 00:26:38;;;;;;;7.82;2.30;;;19.80;99.90;;;;;;5073009;28;20030;-76
2022/06/29 00:29:04;;;;;;;9.23;2.60;;;19.80;99.90;;;;;;5072779;28;20032;-75
2022/06/29 00:31:30;;;;;;;10.60;2.50;;;19.70;99.90;;;;;;5073117;28;20032;-75
2022/06/29 00:33:55;;;;;;;5.03;2.25;;;19.70;99.90;;;;;;5071129;28;20040;-76
2022/06/29 00:36:21;;;;;;;8.52;2.30;;;19.70;99.90;;;;;;5072968;28;20058;-75
2022/06/29 00:38:47;;;;;;;5.00;2.38;;;19.70;99.90;;;;;;5071683;28;20051;-76
2022/06/29 00:41:12;;;;;;;4.78;2.35;;;19.70;99.90;;;;;;5072934;28;20086;-76
2022/06/29 00:43:42;;;;;;;21.15;2.90;;;19.50;99.90;;;;;;5073035;28;20031;-74
2022/06/29 00:46:08;;;;;;;6.03;2.50;;;19.60;99.90;;;;;;5065926;28;20074;-76
2022/06/29 00:48:35;;;;;;;8.80;2.53;;;19.60;99.90;;;;;;5051845;28;20025;-76
2022/06/29 00:51:03;;;;;;;8.38;2.60;;;19.70;99.90;;;;;;5052432;28;20021;-75
2022/06/29 00:53:37;;;;;;;9.20;2.60;;;19.60;99.90;;;;;;5052766;28;20032;-76
2022/06/29 00:56:07;;;;;;;5.35;2.75;;;19.50;99.90;;;;;;5052550;28;20029;-76
2022/06/29 00:58:33;;;;;;;7.82;2.50;;;19.60;99.90;;;;;;5052539;28;20121;-75
2022/06/29 01:01:04;;;;;;;5.95;2.95;;;19.60;99.90;;;;;;5052283;28;20091;-76
2022/06/29 01:03:33;;;;;;;9.98;2.83;;;19.60;99.90;;;;;;5052328;28;20079;-76
2022/06/29 01:06:00;;;;;;;7.07;2.53;;;19.60;99.90;;;;;;5052789;28;20083;-74
2022/06/29 01:08:26;;;;;;;14.73;3.42;;;19.50;99.90;;;;;;5052104;28;20075;-76
2022/06/29 01:10:53;;;;;;;6.18;2.17;;;19.40;99.90;;;;;;5052868;28;20440;-75
2022/06/29 01:13:18;;;;;;;9.27;3.15;;;19.40;99.90;;;;;;5052584;28;20028;-75
2022/06/29 01:15:44;;;;;;;5.22;2.75;;;19.30;99.90;;;;;;5052241;28;20112;-75
2022/06/29 01:18:10;;;;;;;14.27;3.78;;;19.20;99.90;;;;;;5052623;28;20037;-76
2022/06/29 01:20:36;;;;;;;11.10;2.97;;;19.20;99.90;;;;;;5052119;28;20021;-75
2022/06/29 01:23:02;;;;;;;11.45;2.80;;;19.20;99.90;;;;;;5052469;28;20025;-76
2022/06/29 01:25:28;;;;;;;11.30;2.90;;;19.20;99.90;;;;;;5052364;28;20031;-76
2022/06/29 01:27:53;;;;;;;7.10;2.50;;;19.30;99.90;;;;;;5052530;28;20112;-77
2022/06/29 01:30:19;;;;;;;7.75;2.75;;;19.40;99.90;;;;;;5052139;28;20413;-75
2022/06/29 01:32:45;;;;;;;11.55;3.20;;;19.20;99.90;;;;;;5052111;28;20085;-75
2022/06/29 01:35:13;;;;;;;9.55;2.55;;;19.10;99.90;;;;;;5050790;28;20033;-74
2022/06/29 01:37:41;;;;;;;5.57;2.65;;;19.20;99.90;;;;;;5052163;28;20048;-75
2022/06/29 01:40:08;;;;;;;8.60;2.72;;;19.20;99.90;;;;;;5052305;28;20028;-75
2022/06/29 01:42:34;;;;;;;8.00;3.03;;;19.20;99.90;;;;;;5052099;28;20029;-75
2022/06/29 01:45:00;;;;;;;10.52;3.08;;;19.20;99.90;;;;;;5050952;28;20418;-75
2022/06/29 01:47:25;;;;;;;7.68;3.00;;;19.20;99.90;;;;;;5051891;28;20463;-75
2022/06/29 01:49:52;;;;;;;13.20;3.15;;;19.10;99.90;;;;;;5052586;28;20014;-75
2022/06/29 01:52:17;;;;;;;8.68;2.92;;;19.10;99.90;;;;;;5054790;28;20115;-75
2022/06/29 01:54:44;;;;;;;10.25;3.13;;;19.20;99.90;;;;;;5055287;28;20108;-75
2022/06/29 01:57:10;;;;;;;8.10;3.00;;;19.20;99.90;;;;;;5056165;28;20033;-75
2022/06/29 01:59:35;;;;;;;6.95;2.83;;;19.20;99.90;;;;;;5053893;28;20481;-76
2022/06/29 02:02:01;;;;;;;4.78;2.75;;;19.00;99.90;;;;;;5055794;28;20028;-75
2022/06/29 02:04:27;;;;;;;8.20;2.88;;;19.00;99.90;;;;;;5055653;28;20067;-74
2022/06/29 02:06:53;;;;;;;13.98;3.15;;;19.00;99.90;;;;;;5055460;28;20025;-75
2022/06/29 02:09:19;;;;;;;5.75;2.38;;;19.00;99.90;;;;;;5055761;28;20036;-74
2022/06/29 02:11:44;;;;;;;9.27;3.10;;;19.10;99.90;;;;;;5055249;28;20045;-73
2022/06/29 02:14:10;;;;;;;8.27;2.85;;;19.10;99.90;;;;;;5055375;28;20021;-74
2022/06/29 02:16:36;;;;;;;8.02;2.63;;;19.00;99.90;;;;;;5055220;28;20032;-74
2022/06/29 02:19:03;;;;;;;6.15;2.97;;;19.00;99.90;;;;;;5055190;28;20481;-75
2022/06/29 02:21:29;;;;;;;7.65;3.25;;;18.90;99.90;;;;;;5055428;28;20029;-74
2022/06/29 02:23:54;;;;;;;6.90;2.78;;;18.90;99.90;;;;;;5055358;28;20032;-75
2022/06/29 02:26:20;;;;;;;6.07;2.88;;;18.90;99.90;;;;;;5055398;28;20033;-74
2022/06/29 02:28:46;;;;;;;7.65;3.28;;;19.00;99.90;;;;;;5054831;28;20016;-75
2022/06/29 02:36:41;;;;;;;10.05;2.92;;;18.80;99.90;;;;;;5054888;28;20072;-76
2022/06/29 02:39:06;;;;;;;8.90;3.15;;;18.60;99.90;;;;;;5055018;28;20087;-75
2022/06/29 02:41:32;;;;;;;6.40;3.20;;;18.80;99.90;;;;;;5053624;28;20468;-75
2022/06/29 02:43:58;;;;;;;5.97;3.35;;;18.80;99.90;;;;;;5054589;28;20386;-74
2022/06/29 02:46:24;;;;;;;8.93;3.22;;;18.80;99.90;;;;;;5054876;28;20024;-76
2022/06/29 02:48:50;;;;;;;8.95;3.60;;;18.80;99.90;;;;;;5054679;28;20347;-74
2022/06/29 02:51:15;;;;;;;10.18;3.08;;;18.90;99.90;;;;;;5054794;28;20378;-75
2022/06/29 02:53:41;;;;;;;5.53;2.78;;;19.00;99.90;;;;;;5054801;28;20382;-75
2022/06/29 02:56:07;;;;;;;8.60;3.58;;;19.00;99.90;;;;;;5054527;28;20084;-73
2022/06/29 02:58:33;;;;;;;8.32;3.10;;;18.90;99.90;;;;;;5054889;28;20053;-75
2022/06/29 03:00:59;;;;;;;6.38;2.95;;;18.90;99.90;;;;;;5054517;28;20457;-74
2022/06/29 03:03:25;;;;;;;8.73;3.10;;;18.60;99.90;;;;;;5053725;28;20056;-74
2022/06/29 03:05:51;;;;;;;5.25;2.92;;;18.60;99.90;;;;;;5054492;28;20060;-74
2022/06/29 03:08:17;;;;;;;7.68;3.10;;;18.70;99.90;;;;;;5054311;28;20040;-74
2022/06/29 03:10:42;;;;;;;7.60;3.47;;;18.80;99.90;;;;;;5054453;28;20017;-74
2022/06/29 03:13:08;;;;;;;4.82;2.85;;;18.80;99.90;;;;;;5035943;28;20033;-74
2022/06/29 03:15:34;;;;;;;7.32;3.17;;;18.60;99.90;;;;;;5054485;28;20028;-75
2022/06/29 03:18:00;;;;;;;11.23;3.25;;;18.70;99.90;;;;;;5054157;28;20033;-74
2022/06/29 03:20:26;;;;;;;6.20;3.00;;;18.60;99.90;;;;;;5054358;28;20021;-74
2022/06/29 03:22:53;;;;;;;6.03;3.60;;;18.60;99.90;;;;;;5054248;28;20053;-75
2022/06/29 03:25:18;;;;;;;12.25;3.13;;;18.60;99.90;;;;;;5052980;28;20539;-75
2022/06/29 03:27:45;;;;;;;5.57;2.80;;;18.70;99.90;;;;;;5053774;28;20036;-73
2022/06/29 03:30:11;;;;;;;8.68;3.50;;;18.20;99.90;;;;;;5053826;28;20377;-75
2022/06/29 03:32:37;;;;;;;8.75;3.20;;;17.80;99.90;;;;;;5053539;28;20029;-74
2022/06/29 03:35:04;;;;;;;14.52;3.50;;;17.60;99.90;;;;;;5053351;28;20031;-74
2022/06/29 03:37:30;;;;;;;11.35;3.60;;;17.70;99.90;;;;;;5053209;28;20387;-74
2022/06/29 03:39:56;;;;;;;8.80;3.58;;;17.70;99.90;;;;;;5053993;28;20028;-75
2022/06/29 03:42:22;;;;;;;6.43;4.13;;;17.40;99.90;;;;;;5053260;28;20029;-75
2022/06/29 03:44:48;;;;;;;10.02;4.28;;;17.10;99.90;;;;;;5053682;28;20025;-73
2022/06/29 03:47:14;;;;;;;10.40;3.95;;;17.50;99.90;;;;;;5053533;28;20366;-76
2022/06/29 03:49:40;;;;;;;7.72;3.55;;;17.40;99.90;;;;;;5053775;28;20064;-75
2022/06/29 03:52:06;;;;;;;8.90;3.65;;;17.50;99.90;;;;;;5053692;28;20060;-74
2022/06/29 03:54:32;;;;;;;11.10;3.60;;;17.60;99.90;;;;;;5053674;28;20029;-74
2022/06/29 03:56:58;;;;;;;9.07;3.40;;;17.60;99.90;;;;;;5053078;28;20397;-73
2022/06/29 03:59:24;;;;;;;8.43;4.18;;;17.60;99.90;;;;;;5053852;28;20017;-74
2022/06/29 04:01:50;;;;;;;8.82;3.95;;;17.20;99.90;;;;;;5053350;28;20032;-74
2022/06/29 04:04:16;;;;;;;9.90;3.85;;;17.40;99.90;;;;;;5052235;28;20029;-74
2022/06/29 04:06:42;;;;;;;9.82;3.55;;;17.70;99.90;;;;;;5053246;28;20025;-74
2022/06/29 04:09:08;;;;;;;5.65;3.35;;;17.80;99.90;;;;;;5053278;28;20032;-74
2022/06/29 04:11:49;;;;;;;6.80;4.65;;;17.80;99.90;;;;;;5052969;28;20333;-74
2022/06/29 04:14:27;;;;;;;10.82;3.97;;;18.10;99.90;;;;;;5053049;28;20481;-74
2022/06/29 04:16:56;;;;;;;6.57;3.70;;;18.20;99.90;;;;;;5053159;28;20041;-74
2022/06/29 04:19:22;;;;;;;9.93;4.00;;;18.30;99.90;;;;;;5053000;28;20068;-76
2022/06/29 04:21:48;;;;;;;19.42;4.60;;;18.40;99.90;;;;;;5053436;28;20029;-74
2022/06/29 04:24:15;;;;;;;6.95;3.83;;;18.40;99.90;;;;;;5052720;28;20481;-75
2022/06/29 04:26:41;;;;;;;7.60;3.58;;;18.20;99.90;;;;;;5053134;28;20029;-75
2022/06/29 04:29:07;;;;;;;11.25;4.45;;;18.30;99.90;;;;;;5052903;28;20078;-75
2022/06/29 04:31:33;;;;;;;13.27;4.72;;;18.10;99.90;;;;;;5053474;28;20538;-75
2022/06/29 04:34:00;;;;;;;10.60;5.15;;;18.00;99.90;;;;;;5053075;28;20489;-73
2022/06/29 04:36:25;;;;;;;13.85;4.68;;;18.00;99.90;;;;;;5052948;28;20037;-74
2022/06/29 04:38:53;;;;;;;11.75;4.80;;;18.20;99.90;;;;;;5051208;28;20036;-74
2022/06/29 04:41:19;;;;;;;7.57;5.03;;;18.20;99.90;;;;;;5053041;28;20457;-75
2022/06/29 04:43:46;;;;;;;7.45;4.28;;;18.20;99.90;;;;;;5052792;28;20029;-75
2022/06/29 04:46:21;;;;;;;9.73;5.03;;;18.20;99.90;;;;;;5052639;28;20020;-74
2022/06/29 04:48:56;;;;;;;10.52;5.22;;;18.30;99.90;;;;;;5052672;28;20056;-74
2022/06/29 04:51:23;;;;;;;8.05;4.18;;;18.20;99.90;;;;;;5052919;28;20065;-73
2022/06/29 04:53:49;;;;;;;10.27;4.78;;;18.40;99.90;;;;;;5051188;28;20036;-74
2022/06/29 04:56:16;;;;;;;8.23;4.25;;;18.40;99.90;;;;;;5052523;28;20063;-75
2022/06/29 04:58:43;;;;;;;11.63;4.97;;;18.50;99.90;;;;;;5052707;28;20028;-74
2022/06/29 05:01:09;;;;;;;11.88;5.45;;;18.30;99.90;;;;;;5052476;28;20033;-74
2022/06/29 05:03:35;;;;;;;16.10;5.10;;;18.50;99.90;;;;;;5052642;28;20060;-75
2022/06/29 05:06:01;;;;;;;14.75;4.82;;;18.60;99.90;;;;;;5051364;28;20110;-75
2022/06/29 05:08:27;;;;;;;14.30;4.30;;;18.60;99.90;;;;;;5052116;28;20013;-74
2022/06/29 05:10:53;;;;;;;22.63;5.32;;;18.60;99.90;;;;;;5052601;28;20033;-75
2022/06/29 05:13:19;;;;;;;15.90;4.90;;;18.70;99.90;;;;;;5052518;28;20033;-75
2022/06/29 05:15:45;;;;;;;17.95;5.28;;;18.60;99.90;;;;;;5052574;28;20041;-74
2022/06/29 05:18:10;;;;;;;17.95;5.07;;;18.70;99.90;;;;;;5052467;28;20120;-74
2022/06/29 05:20:36;;;;;;;12.93;5.03;;;18.80;99.90;;;;;;5052323;28;20021;-75
2022/06/29 05:23:04;;;;;;;17.30;5.82;;;19.10;99.90;;;;;;5052469;28;20393;-75
2022/06/29 05:25:33;;;;;;;20.35;5.90;;;19.00;99.90;;;;;;5053666;28;20025;-74
2022/06/29 05:27:58;;;;;;;16.60;5.60;;;19.10;99.90;;;;;;5056642;28;20386;-75
2022/06/29 05:30:24;;;;;;;15.40;5.70;;;18.90;99.90;;;;;;5056192;28;20029;-74
2022/06/29 05:32:50;;;;;;;16.42;5.32;;;18.80;99.90;;;;;;5056134;28;20048;-74
2022/06/29 05:35:16;;;;;;;12.57;5.10;;;18.80;99.90;;;;;;5056078;28;20032;-75
2022/06/29 05:37:42;;;;;;;13.32;6.18;;;18.70;99.90;;;;;;5054637;28;20516;-74
2022/06/29 05:40:08;;;;;;;9.40;5.40;;;18.90;99.90;;;;;;5056022;28;20021;-75
2022/06/29 05:42:34;;;;;;;14.27;5.00;;;19.10;99.90;;;;;;5056101;28;20032;-74
2022/06/29 05:45:00;;;;;;;20.23;5.47;;;19.20;99.90;;;;;;5055863;28;20389;-74
2022/06/29 05:47:26;;;;;;;11.88;5.60;;;19.40;99.90;;;;;;5055604;28;20025;-75
2022/06/29 05:49:51;;;;;;;19.15;5.45;;;19.50;99.90;;;;;;5055954;28;20017;-73
2022/06/29 05:52:18;;;;;;;12.20;5.13;;;19.60;99.90;;;;;;5054279;28;20060;-73
2022/06/29 05:54:43;;;;;;;7.93;4.50;;;19.70;99.90;;;;;;5055711;28;20021;-75
2022/06/29 05:57:09;;;;;;;7.30;4.53;;;19.50;99.90;;;;;;5055770;28;20091;-75
2022/06/29 05:59:35;;;;;;;11.48;4.93;;;19.60;99.90;;;;;;5055530;28;20032;-74
2022/06/29 06:02:01;;;;;;;9.23;5.10;;;19.50;99.90;;;;;;5055570;28;20032;-75
2022/06/29 06:04:27;;;;;;;20.58;5.53;;;19.60;99.90;;;;;;5055784;28;20068;-74
2022/06/29 06:06:52;;;;;;;19.98;5.57;;;19.70;99.90;;;;;;5055054;28;20025;-74
2022/06/29 06:09:22;;;;;;;10.65;4.60;;;19.80;99.90;;;;;;5055715;28;20373;-75
2022/06/29 06:11:48;;;;;;;10.45;4.32;;;19.60;99.90;;;;;;5055213;28;20040;-75
2022/06/29 06:14:14;;;;;;;12.43;4.40;;;19.50;99.90;;;;;;5055711;28;20025;-76
2022/06/29 06:16:39;;;;;;;11.10;3.88;;;19.60;99.90;;;;;;5054917;28;20040;-76
2022/06/29 06:19:05;;;;;;;14.80;4.07;;;19.60;99.90;;;;;;5055333;28;20412;-75
2022/06/29 06:21:31;;;;;;;7.82;4.15;;;19.90;99.90;;;;;;5055086;28;20037;-74
2022/06/29 06:23:56;;;;;;;12.57;4.20;;;20.00;99.90;;;;;;5055543;28;20458;-74
2022/06/29 06:26:22;;;;;;;12.43;4.03;;;20.10;99.90;;;;;;5055111;28;20107;-75
2022/06/29 06:28:50;;;;;;;10.85;4.25;;;20.20;99.90;;;;;;5053984;28;20150;-74
2022/06/29 06:31:16;;;;;;;9.27;4.38;;;20.40;99.90;;;;;;5054971;28;20167;-75
2022/06/29 06:33:41;;;;;;;12.80;4.97;;;20.40;99.90;;;;;;5054904;28;20111;-75
2022/06/29 06:36:07;;;;;;;13.23;3.72;;;20.50;99.90;;;;;;5054269;28;20025;-77
2022/06/29 06:38:33;;;;;;;8.57;4.35;;;20.80;99.90;;;;;;5054284;28;20519;-70
2022/06/29 06:43:43;;;;;;;9.48;3.67;;;20.80;99.90;;;;;;5054887;28;20076;-73
2022/06/29 06:46:09;;;;;;;9.60;3.50;;;21.10;99.90;;;;;;5053437;28;20060;-74
2022/06/29 06:48:36;;;;;;;9.93;3.67;;;21.00;99.90;;;;;;5055429;28;20037;-75
2022/06/29 06:51:02;;;;;;;9.07;2.90;;;20.90;99.90;;;;;;5054327;28;20458;-73
2022/06/29 06:53:28;;;;;;;6.85;2.80;;;21.00;99.90;;;;;;5054886;28;20035;-75
2022/06/29 06:55:53;;;;;;;10.05;3.10;;;21.10;99.90;;;;;;5054520;28;20058;-74
2022/06/29 06:58:19;;;;;;;12.73;3.20;;;20.90;99.90;;;;;;5054287;28;20486;-73
2022/06/29 07:00:45;;;;;;;8.65;2.72;;;21.00;99.90;;;;;;5054728;28;20048;-75
2022/06/29 07:03:10;;;;;;;11.05;3.30;;;21.20;99.90;;;;;;5054570;28;20025;-72
2022/06/29 07:05:37;;;;;;;6.28;3.13;;;21.10;99.90;;;;;;5054163;28;20359;-74
2022/06/29 07:08:03;;;;;;;11.02;3.42;;;21.30;99.90;;;;;;5054172;28;20122;-73
2022/06/29 07:10:29;;;;;;;8.18;4.28;;;21.30;99.90;;;;;;5054282;28;20158;-75
2022/06/29 07:12:54;;;;;;;12.48;4.93;;;21.20;99.90;;;;;;5054366;28;20104;-73
2022/06/29 07:15:20;;;;;;;8.80;4.78;;;21.10;99.90;;;;;;5054355;28;20021;-75
2022/06/29 07:17:46;;;;;;;9.27;6.32;;;21.40;99.90;;;;;;5054043;28;20497;-73
2022/06/29 07:20:12;;;;;;;13.45;5.95;;;21.70;99.90;;;;;;5053990;28;20108;-74
2022/06/29 07:22:37;;;;;;;10.05;5.85;;;21.90;99.90;;;;;;5054071;28;20683;-75
2022/06/29 07:25:03;;;;;;;12.88;5.30;;;21.90;99.90;;;;;;5054428;28;20492;-75
2022/06/29 07:27:29;;;;;;;14.18;4.90;;;22.10;99.90;;;;;;5053969;28;20037;-75
2022/06/29 07:29:55;;;;;;;11.95;4.82;;;22.00;99.90;;;;;;5054140;28;20077;-75
2022/06/29 07:32:21;;;;;;;13.52;5.07;;;22.10;99.90;;;;;;5053856;28;20036;-74
2022/06/29 07:34:47;;;;;;;15.63;5.10;;;22.40;99.90;;;;;;5052698;28;20059;-75
2022/06/29 07:37:13;;;;;;;9.98;4.43;;;22.40;99.90;;;;;;5053723;28;20039;-75
2022/06/29 07:39:39;;;;;;;8.13;4.55;;;22.20;99.90;;;;;;5053786;28;20033;-74
2022/06/29 07:42:05;;;;;;;10.15;4.07;;;22.30;99.90;;;;;;5053675;28;20029;-75
2022/06/29 07:44:31;;;;;;;9.57;4.38;;;22.40;99.90;;;;;;5054084;28;20068;-73
2022/06/29 07:46:57;;;;;;;8.98;4.10;;;22.60;99.90;;;;;;5053278;28;20104;-74
2022/06/29 07:49:23;;;;;;;6.28;3.75;;;22.90;99.90;;;;;;5053455;28;20078;-74
2022/06/29 07:51:52;;;;;;;10.02;4.22;;;23.10;99.90;;;;;;5053666;28;20043;-73
2022/06/29 07:54:17;;;;;;;7.20;3.97;;;23.00;99.90;;;;;;5052180;28;20079;-74
2022/06/29 07:56:44;;;;;;;8.98;3.75;;;22.90;99.90;;;;;;5053434;28;20041;-75
2022/06/29 07:59:09;;;;;;;8.10;3.85;;;22.80;99.90;;;;;;5052181;28;20060;-74
2022/06/29 08:01:35;;;;;;;8.88;3.83;;;22.70;99.90;;;;;;5053217;28;20473;-76
2022/06/29 08:04:01;;;;;;;5.53;3.70;;;22.70;99.90;;;;;;5053698;28;20025;-73
2022/06/29 08:06:27;;;;;;;7.90;3.47;;;22.80;99.90;;;;;;5053180;28;20035;-75
2022/06/29 08:08:53;;;;;;;12.98;4.20;;;23.10;99.90;;;;;;5053309;28;20036;-74
2022/06/29 08:11:18;;;;;;;5.80;3.50;;;23.30;99.90;;;;;;5053331;28;20013;-74
2022/06/29 08:13:44;;;;;;;9.85;2.92;;;23.50;99.90;;;;;;5053489;28;20174;-74
2022/06/29 08:16:10;;;;;;;5.85;2.85;;;23.30;99.00;;;;;;5053134;28;20501;-76
2022/06/29 08:18:36;;;;;;;5.40;2.83;;;23.30;99.30;;;;;;5053156;28;20025;-75
2022/06/29 08:21:03;;;;;;;10.45;2.88;;;23.20;99.90;;;;;;5053249;28;20025;-75
2022/06/29 08:23:30;;;;;;;6.78;2.92;;;23.40;99.50;;;;;;5053136;28;20413;-74
2022/06/29 08:25:56;;;;;;;7.72;2.20;;;23.40;99.60;;;;;;5051886;28;20463;-74
2022/06/29 08:28:26;;;;;;;4.85;2.35;;;23.50;99.40;;;;;;5052987;28;20021;-76
2022/06/29 08:30:53;;;;;;;7.78;3.33;;;23.20;99.90;;;;;;5052827;28;20025;-74
2022/06/29 08:33:21;;;;;;;5.20;3.15;;;23.50;99.90;;;;;;5052807;28;20484;-75
2022/06/29 08:35:50;;;;;;;10.95;3.20;;;23.90;99.90;;;;;;5053015;28;20037;-75
2022/06/29 08:38:17;;;;;;;10.52;3.20;;;24.10;99.90;;;;;;5052729;28;20086;-74
2022/06/29 08:40:45;;;;;;;8.10;2.78;;;24.30;99.70;;;;;;5052736;28;20029;-74
2022/06/29 08:43:13;;;;;;;5.85;2.60;;;24.20;99.10;;;;;;5052772;28;20048;-74
2022/06/29 08:45:42;;;;;;;3.20;1.95;;;24.50;99.20;;;;;;5052575;28;20025;-75
2022/06/29 08:48:09;;;;;;;8.18;2.05;;;24.70;98.00;;;;;;5052548;28;20028;-74
2022/06/29 08:50:36;;;;;;;4.25;2.05;;;24.50;97.40;;;;;;5052546;28;20112;-75
2022/06/29 08:53:05;;;;;;;4.50;1.77;;;24.40;97.60;;;;;;5052910;28;20028;-76
2022/06/29 08:55:33;;;;;;;11.43;1.88;;;24.30;96.60;;;;;;5052491;28;20021;-76
2022/06/29 08:57:59;;;;;;;3.72;1.58;;;24.40;96.40;;;;;;5052672;28;20473;-76
2022/06/29 09:00:25;;;;;;;3.20;1.88;;;24.40;96.30;;;;;;5053505;28;20084;-76
2022/06/29 09:02:51;;;;;;;5.65;1.88;;;24.70;96.50;;;;;;5056771;28;20117;-75
2022/06/29 09:05:17;;;;;;;8.10;2.20;;;24.80;96.70;;;;;;5056986;28;20477;-76
2022/06/29 09:07:43;;;;;;;5.28;1.70;;;24.90;96.10;;;;;;5056638;28;20110;-76
2022/06/29 09:10:12;;;;;;;11.35;2.15;;;25.00;96.20;;;;;;5056600;28;20082;-75
2022/06/29 09:12:38;;;;;;;8.02;1.75;;;25.10;95.70;;;;;;5055630;28;20099;-76
2022/06/29 09:15:07;;;;;;;6.63;1.40;;;25.00;94.60;;;;;;5054817;28;20033;-74
2022/06/29 09:17:35;;;;;;;8.82;1.70;;;24.90;95.60;;;;;;5056507;28;20040;-76
2022/06/29 09:20:02;;;;;;;8.98;1.70;;;24.80;95.10;;;;;;5056225;28;20086;-77
2022/06/29 09:22:28;;;;;;;5.32;1.60;;;25.30;95.70;;;;;;5055292;28;20025;-75
2022/06/29 09:24:53;;;;;;;10.07;1.77;;;25.50;93.90;;;;;;5056231;28;20031;-75
2022/06/29 09:27:19;;;;;;;6.40;1.60;;;25.20;94.40;;;;;;5056385;28;20495;-76
2022/06/29 09:29:45;;;;;;;10.55;1.67;;;25.20;94.70;;;;;;5055852;28;20028;-76
2022/06/29 09:32:18;;;;;;;6.40;1.70;;;25.30;94.40;;;;;;5056041;28;20108;-76
2022/06/29 09:34:47;;;;;;;15.88;2.40;;;25.20;94.30;;;;;;5056103;28;20115;-74
2022/06/29 09:37:17;;;;;;;5.15;1.55;;;25.50;95.10;;;;;;5056037;28;20032;-75
2022/06/29 09:39:51;;;;;;;6.40;1.50;;;25.70;94.70;;;;;;5055952;28;20036;-78
2022/06/29 09:42:20;;;;;;;7.53;1.55;;;25.70;94.00;;;;;;5056156;28;20037;-76
2022/06/29 09:44:46;;;;;;;6.93;1.60;;;25.70;93.90;;;;;;5055714;28;20539;-76
2022/06/29 09:47:19;;;;;;;8.45;2.00;;;25.70;94.60;;;;;;5055737;28;20528;-76
2022/06/29 09:49:52;;;;;;;7.43;1.70;;;25.90;94.50;;;;;;5055844;28;20036;-77
2022/06/29 09:52:19;;;;;;;7.75;2.03;;;26.10;94.00;;;;;;5055800;28;20025;-75
2022/06/29 09:54:49;;;;;;;2.40;1.20;;;25.80;94.00;;;;;;5055929;28;20564;-75
2022/06/29 09:57:18;;;;;;;5.80;1.73;;;26.20;92.50;;;;;;5055775;28;20048;-75
2022/06/29 10:02:43;;;;;;;6.32;1.77;;;26.20;92.20;;;;;;5055711;28;20099;-77
2022/06/29 10:05:17;;;;;;;7.85;1.38;;;26.70;91.50;;;;;;5055564;28;20037;-76
2022/06/29 10:07:45;;;;;;;3.60;1.30;;;26.40;91.30;;;;;;5055582;28;20029;-76
2022/06/29 10:10:13;;;;;;;4.05;1.40;;;26.50;91.00;;;;;;5055251;28;20079;-76
2022/06/29 10:15:57;;;;;;;8.52;1.63;;;26.30;90.80;;;;;;5055346;28;20033;-76
2022/06/29 10:18:48;;;;;;;6.97;1.55;;;26.60;91.00;;;;;;5055408;28;20037;-75
2022/06/29 10:21:23;;;;;;;4.05;1.30;;;26.70;88.60;;;;;;5055332;28;20033;-76
2022/06/29 10:23:53;;;;;;;5.93;1.88;;;26.70;89.40;;;;;;5053910;28;20025;-76
2022/06/29 10:26:30;;;;;;;4.45;1.65;;;27.10;89.30;;;;;;5055088;28;20029;-75
2022/06/29 10:29:19;;;;;;;7.88;1.77;;;27.00;89.60;;;;;;5054932;28;20021;-75
2022/06/29 10:32:02;;;;;;;8.70;1.58;;;27.00;88.70;;;;;;5048081;28;20429;-77
2022/06/29 10:34:31;;;;;;;6.38;1.42;;;26.80;90.50;;;;;;5055028;28;20041;-76
2022/06/29 10:37:02;;;;;;;11.07;1.35;;;27.00;88.50;;;;;;5054604;28;20040;-76
2022/06/29 10:39:49;;;;;;;7.60;1.83;;;26.70;87.00;;;;;;5055051;28;20033;-76
2022/06/29 10:45:32;;;;;;;12.40;1.50;;;26.70;88.90;;;;;;5054868;28;20048;-76
2022/06/29 10:47:58;;;;;;;7.18;1.98;;;27.00;89.00;;;;;;5054475;28;20017;-76
2022/06/29 10:50:25;;;;;;;6.22;1.70;;;27.40;90.80;;;;;;5054804;28;20480;-77
2022/06/29 10:52:56;;;;;;;5.68;2.15;;;27.50;88.60;;;;;;5054680;28;20021;-78
2022/06/29 10:55:24;;;;;;;2.60;1.57;;;27.40;88.40;;;;;;5054641;28;20474;-75
2022/06/29 10:57:49;;;;;;;6.15;1.40;;;27.60;87.90;;;;;;5054037;28;20295;-76
2022/06/29 11:00:22;;;;;;;6.57;1.58;;;27.80;89.20;;;;;;5054555;28;20343;-76
2022/06/29 11:02:48;;;;;;;19.35;1.80;;;27.80;90.00;;;;;;5054406;28;20040;-76
2022/06/29 11:05:14;;;;;;;14.93;1.52;;;28.40;88.50;;;;;;5053337;28;20048;-76
2022/06/29 11:13:05;;;;;;;3.53;1.42;;;27.20;89.50;;;;;;5054023;28;20057;-77
2022/06/29 11:15:41;;;;;;;6.43;1.70;;;27.40;89.20;;;;;;5054296;28;20051;-75
2022/06/29 11:18:10;;;;;;;6.28;1.50;;;27.40;88.70;;;;;;5054205;28;20116;-77
2022/06/29 11:20:38;;;;;;;7.75;1.58;;;27.90;89.50;;;;;;5054187;28;20078;-76
2022/06/29 11:23:10;;;;;;;11.00;1.67;;;27.70;88.90;;;;;;5051824;28;20040;-77
2022/06/29 11:25:40;;;;;;;10.93;2.28;;;28.10;87.20;;;;;;5053746;28;20386;-77
2022/06/29 11:28:07;;;;;;;15.70;1.55;;;28.80;88.10;;;;;;5053810;28;20033;-76
2022/06/29 11:30:33;;;;;;;11.02;1.63;;;28.50;86.60;;;;;;5053897;28;20021;-76
2022/06/29 11:33:05;;;;;;;7.90;2.03;;;28.10;86.50;;;;;;5052533;28;20067;-77
2022/06/29 11:35:32;;;;;;;4.75;1.52;;;28.00;86.50;;;;;;5053938;28;20059;-77
2022/06/29 11:38:01;;;;;;;6.00;1.20;;;28.10;84.80;;;;;;5053779;28;20029;-76
2022/06/29 11:40:34;;;;;;;8.88;1.80;;;28.10;85.00;;;;;;5052180;28;20226;-75
2022/06/29 11:43:05;;;;;;;2.60;1.25;;;28.10;87.10;;;;;;5053806;28;20025;-76
2022/06/29 11:45:46;;;;;;;7.97;1.70;;;28.10;86.30;;;;;;5052651;28;20028;-76
2022/06/29 11:48:17;;;;;;;5.05;2.03;;;28.10;86.10;;;;;;5053384;28;20033;-76
2022/06/29 11:50:49;;;;;;;8.18;1.25;;;28.60;84.80;;;;;;5053909;28;20029;-77
2022/06/29 11:53:37;;;;;;;11.05;2.25;;;28.50;84.00;;;;;;5053575;28;20029;-77
2022/06/29 11:56:15;;;;;;;9.07;1.63;;;28.70;84.00;;;;;;5053189;28;20501;-77
2022/06/29 11:58:57;;;;;;;8.07;1.73;;;28.80;84.00;;;;;;5052284;28;20041;-76
2022/06/29 12:01:25;;;;;;;8.82;1.25;;;28.70;84.30;;;;;;5053396;28;20033;-77
2022/06/29 12:03:59;;;;;;;6.95;1.27;;;29.30;84.70;;;;;;5053533;28;20500;-78
2022/06/29 12:06:37;;;;;;;14.43;1.85;;;29.80;82.30;;;;;;5053358;28;20040;-74
2022/06/29 12:09:08;;;;;;;7.03;1.30;;;28.70;81.80;;;;;;5052892;28;20025;-77
2022/06/29 12:11:34;;;;;;;3.80;1.33;;;28.20;82.60;;;;;;5053254;28;20025;-76
2022/06/29 12:14:00;;;;;;;6.60;1.40;;;27.70;81.40;;;;;;5053263;28;20489;-76
2022/06/29 12:16:26;;;;;;;4.25;1.20;;;27.80;82.60;;;;;;5053229;28;20060;-77
2022/06/29 12:18:51;;;;;;;9.25;1.42;;;28.40;81.50;;;;;;5053322;28;20477;-76
2022/06/29 12:21:17;;;;;;;5.38;1.42;;;29.10;82.50;;;;;;5053192;28;20032;-76
2022/06/29 12:23:43;;;;;;;7.38;1.55;;;28.40;82.20;;;;;;5052567;28;20033;-75
2022/06/29 12:26:09;;;;;;;10.38;1.40;;;28.50;84.10;;;;;;5053071;28;20033;-77
2022/06/29 12:28:37;;;;;;;7.13;1.70;;;28.60;83.00;;;;;;5052869;28;20036;-75
2022/06/29 12:31:03;;;;;;;9.38;1.60;;;28.90;82.10;;;;;;5053121;28;20013;-75
2022/06/29 12:33:29;;;;;;;4.03;1.13;;;29.10;82.40;;;;;;5052667;28;20118;-75
2022/06/29 12:35:54;;;;;;;11.13;1.55;;;29.20;81.70;;;;;;5052919;28;20027;-76
2022/06/29 12:38:20;;;;;;;6.88;1.40;;;29.20;82.40;;;;;;5052319;28;20525;-77
2022/06/29 12:40:46;;;;;;;3.10;1.05;;;29.30;78.90;;;;;;5052718;28;20078;-76
2022/06/29 12:43:12;;;;;;;4.18;1.00;;;28.80;79.40;;;;;;5052747;28;20025;-77
2022/06/29 12:45:38;;;;;;;4.97;1.50;;;28.20;79.80;;;;;;5051617;28;20063;-76
2022/06/29 12:48:04;;;;;;;11.27;1.40;;;28.10;79.10;;;;;;5052751;28;20032;-76
2022/06/29 12:50:29;;;;;;;7.65;1.30;;;28.90;80.60;;;;;;5052473;28;20063;-76
2022/06/29 12:52:56;;;;;;;3.90;1.30;;;29.30;80.80;;;;;;5051239;28;20017;-75
2022/06/29 12:55:22;;;;;;;1.83;1.10;;;28.90;78.60;;;;;;5052604;28;20021;-74
2022/06/29 12:57:48;;;;;;;10.50;1.88;;;28.50;79.10;;;;;;5052616;28;20037;-76
2022/06/29 13:00:16;;;;;;;4.30;1.38;;;29.30;81.10;;;;;;5052648;28;20031;-76
2022/06/29 13:02:42;;;;;;;3.72;1.30;;;29.00;80.50;;;;;;5051470;28;20389;-75
2022/06/29 13:05:08;;;;;;;8.38;1.52;;;28.50;78.70;;;;;;5052993;28;20017;-74
2022/06/29 13:07:35;;;;;;;7.38;1.23;;;28.60;78.60;;;;;;5052488;28;20033;-76